Time;durP1;ratioP1;P1;durP2;ratioP2;P2;SDS_P1;SDS_P2;PMS_P1;PMS_P2;Temp;Humidity;BMP_temperature;BMP_pressure;BME280_temperature;BME280_humidity;BME280_pressure;Samples;Min_cycle;Max_cycle;Signal;HPM_P1;HPM_P2
2021/12/12 00:00:30;;;;;;;0.30;0.20;;;;;;;9.69;100.00;93987.28;5112310;28;20492;-52
2021/12/12 00:03:06;;;;;;;0.30;0.20;;;;;;;10.20;100.00;94049.47;5112284;28;20431;-53
2021/12/12 00:05:40;;;;;;;0.30;0.20;;;;;;;10.38;100.00;94078.75;5112079;28;20459;-52
2021/12/12 00:08:10;;;;;;;0.30;0.20;;;;;;;10.42;100.00;94075.25;5112373;28;20434;-53
2021/12/12 00:10:41;;;;;;;0.30;0.20;;;;;;;10.50;100.00;94087.00;5112225;28;20438;-53
2021/12/12 00:13:13;;;;;;;0.30;0.20;;;;;;;10.47;100.00;94095.53;5111921;28;20973;-53
2021/12/12 00:15:42;;;;;;;0.30;0.20;;;;;;;10.53;100.00;94096.97;5115596;28;20549;-53
2021/12/12 00:18:12;;;;;;;0.30;0.20;;;;;;;10.37;100.00;94109.00;5116097;28;20518;-53
2021/12/12 00:20:41;;;;;;;0.30;0.20;;;;;;;10.45;100.00;94122.28;5116066;28;20466;-53
2021/12/12 00:23:10;;;;;;;0.30;0.20;;;;;;;9.95;100.00;94070.34;5116008;28;20950;-53
2021/12/12 00:25:41;;;;;;;0.30;0.20;;;;;;;10.22;100.00;94131.25;5115126;28;20510;-53
2021/12/12 00:28:10;;;;;;;0.30;0.20;;;;;;;10.13;100.00;94131.16;5115305;27;20573;-53
2021/12/12 00:30:39;;;;;;;0.30;0.20;;;;;;;9.98;100.00;94123.50;5115294;28;20496;-52
2021/12/12 00:33:08;;;;;;;0.53;0.50;;;;;;;9.64;100.00;94119.66;5115482;28;20517;-52
2021/12/12 00:35:38;;;;;;;0.30;0.20;;;;;;;9.79;100.00;94141.28;5115530;28;20879;-52
2021/12/12 00:38:12;;;;;;;0.30;0.20;;;;;;;9.60;100.00;94143.22;5115774;28;20518;-52
2021/12/12 00:40:44;;;;;;;0.30;0.20;;;;;;;9.65;100.00;94148.44;5115319;28;20470;-52
2021/12/12 00:43:15;;;;;;;0.30;0.20;;;;;;;9.33;100.00;94130.75;5115433;28;20975;-52
2021/12/12 00:45:44;;;;;;;0.40;0.30;;;;;;;9.14;100.00;94161.69;5115168;28;20538;-52
2021/12/12 00:48:12;;;;;;;0.50;0.50;;;;;;;9.29;100.00;94179.19;5115273;28;20803;-52
2021/12/12 00:50:44;;;;;;;0.30;0.20;;;;;;;9.26;100.00;94172.59;5115517;27;20462;-52
2021/12/12 00:53:14;;;;;;;0.30;0.20;;;;;;;9.04;100.00;94177.72;5115462;28;20415;-52
2021/12/12 00:55:45;;;;;;;0.40;0.30;;;;;;;9.27;100.00;94174.19;5115243;28;20569;-52
2021/12/12 00:58:16;;;;;;;0.30;0.20;;;;;;;9.43;100.00;94193.25;5115002;28;20435;-52
2021/12/12 01:00:49;;;;;;;0.30;0.30;;;;;;;9.46;100.00;94201.38;5115090;28;20436;-52
2021/12/12 01:03:21;;;;;;;0.30;0.20;;;;;;;9.54;100.00;94208.66;5115249;28;20428;-52
2021/12/12 01:05:52;;;;;;;1.43;0.67;;;;;;;9.19;100.00;94216.34;5114861;28;20518;-52
2021/12/12 01:08:20;;;;;;;1.23;0.40;;;;;;;9.25;100.00;94218.66;5114845;28;20481;-52
2021/12/12 01:10:52;;;;;;;0.50;0.50;;;;;;;9.25;100.00;94233.72;5115019;28;20466;-52
2021/12/12 01:13:21;;;;;;;0.33;0.23;;;;;;;9.21;100.00;94228.19;5114681;28;20428;-52
2021/12/12 01:15:53;;;;;;;0.50;0.40;;;;;;;9.38;100.00;94233.78;5114540;28;20498;-52
2021/12/12 01:18:24;;;;;;;1.60;1.50;;;;;;;9.34;100.00;94231.97;5114752;28;20455;-52
2021/12/12 01:20:58;;;;;;;0.30;0.20;;;;;;;9.33;100.00;94241.78;5114485;28;20474;-52
2021/12/12 01:23:34;;;;;;;0.30;0.20;;;;;;;9.29;100.00;94237.34;5114475;28;20431;-52
2021/12/12 01:26:04;;;;;;;0.53;0.53;;;;;;;9.08;100.00;94236.09;5113920;28;20459;-52
2021/12/12 01:28:35;;;;;;;0.40;0.40;;;;;;;8.74;100.00;94246.81;5114399;28;20518;-52
2021/12/12 01:31:08;;;;;;;19.13;1.10;;;;;;;8.82;100.00;94256.75;5114534;28;20467;-52
2021/12/12 01:33:36;;;;;;;0.30;0.20;;;;;;;9.10;100.00;94255.06;5114236;28;20427;-52
2021/12/12 01:36:11;;;;;;;0.87;0.87;;;;;;;9.17;100.00;94268.72;5113129;28;20514;-52
2021/12/12 01:38:53;;;;;;;0.80;0.67;;;;;;;9.14;100.00;94271.94;5114402;28;20461;-52
2021/12/12 01:41:27;;;;;;;2.00;1.13;;;;;;;9.19;100.00;94261.28;5114049;28;20439;-52
2021/12/12 01:44:01;;;;;;;0.30;0.30;;;;;;;9.10;100.00;94263.78;5114099;28;20432;-53
2021/12/12 01:46:34;;;;;;;0.40;0.30;;;;;;;8.86;100.00;94263.84;5113905;28;20424;-53
2021/12/12 01:49:12;;;;;;;0.30;0.20;;;;;;;8.93;100.00;94271.41;5113960;28;20481;-52
2021/12/12 01:51:44;;;;;;;0.40;0.30;;;;;;;8.46;100.00;94284.66;5113926;28;20423;-52
2021/12/12 01:54:16;;;;;;;0.50;0.47;;;;;;;8.16;100.00;94252.19;5113753;28;20498;-52
2021/12/12 01:56:54;;;;;;;0.30;0.20;;;;;;;8.51;100.00;94288.03;5113754;28;20420;-53
2021/12/12 01:59:26;;;;;;;0.50;0.50;;;;;;;8.45;100.00;94244.25;5113551;28;20434;-53
2021/12/12 02:01:58;;;;;;;0.30;0.30;;;;;;;8.66;100.00;94287.84;5113310;28;20878;-53
2021/12/12 02:04:29;;;;;;;0.30;0.20;;;;;;;8.26;100.00;94198.53;5113484;28;20772;-52
2021/12/12 02:06:59;;;;;;;1.63;0.40;;;;;;;8.72;100.00;94280.66;5113560;28;20434;-53
2021/12/12 02:09:28;;;;;;;0.50;0.50;;;;;;;8.83;100.00;94290.03;5113615;28;20514;-53
2021/12/12 02:12:00;;;;;;;1.23;0.73;;;;;;;8.95;100.00;94279.84;5113492;28;20463;-53
2021/12/12 02:14:32;;;;;;;0.30;0.20;;;;;;;8.92;100.00;94285.69;5113091;28;20566;-53
2021/12/12 02:17:04;;;;;;;1.33;0.30;;;;;;;8.65;100.00;94290.78;5113323;28;20438;-53
2021/12/12 02:19:41;;;;;;;0.30;0.20;;;;;;;8.89;100.00;94287.06;5113649;28;20451;-53
2021/12/12 02:22:31;;;;;;;0.30;0.20;;;;;;;8.89;100.00;94294.97;5113347;28;20458;-53
2021/12/12 02:35:58;;;;;;;0.30;0.20;;;;;;;8.94;100.00;94300.19;5102995;28;20523;-53
2021/12/12 02:38:32;;;;;;;0.30;0.20;;;;;;;8.63;100.00;94300.81;5112551;28;20884;-52
2021/12/12 02:41:03;;;;;;;0.37;0.27;;;;;;;8.23;100.00;94318.63;5112427;28;20467;-52
2021/12/12 02:43:35;;;;;;;0.40;0.40;;;;;;;8.32;100.00;94324.91;5112525;28;20419;-52
2021/12/12 02:46:05;;;;;;;0.30;0.20;;;;;;;8.55;100.00;94328.63;5112790;28;20994;-52
2021/12/12 02:48:41;;;;;;;0.30;0.20;;;;;;;8.76;100.00;94321.28;5113123;28;20488;-52
2021/12/12 02:51:15;;;;;;;0.40;0.30;;;;;;;8.97;100.00;94321.84;5112846;28;20457;-52
2021/12/12 02:53:48;;;;;;;0.30;0.20;;;;;;;8.87;100.00;94325.41;5112759;28;20458;-52
2021/12/12 02:56:21;;;;;;;0.40;0.30;;;;;;;8.84;100.00;94324.09;5112584;28;20517;-52
2021/12/12 02:58:50;;;;;;;0.30;0.20;;;;;;;8.87;100.00;94331.47;5112730;28;20422;-52
2021/12/12 03:01:21;;;;;;;0.30;0.20;;;;;;;9.00;100.00;94332.66;5112493;28;20451;-52
2021/12/12 03:03:51;;;;;;;1.73;0.43;;;;;;;9.11;100.00;94336.72;5112322;28;20494;-52
2021/12/12 03:06:24;;;;;;;0.30;0.30;;;;;;;8.70;100.00;94336.41;5112185;28;20467;-52
2021/12/12 03:08:58;;;;;;;0.40;0.20;;;;;;;8.63;100.00;94351.00;5112108;28;20443;-52
2021/12/12 03:11:27;;;;;;;0.40;0.30;;;;;;;8.40;100.00;94273.34;5111425;28;20939;-52
2021/12/12 03:13:56;;;;;;;0.30;0.20;;;;;;;8.44;100.00;94335.09;5112146;28;20544;-53
2021/12/12 03:16:26;;;;;;;0.30;0.20;;;;;;;8.55;100.00;94352.41;5112223;28;21017;-53
2021/12/12 03:18:55;;;;;;;0.30;0.20;;;;;;;8.33;100.00;94365.28;5112406;28;20419;-53
2021/12/12 03:21:30;;;;;;;0.30;0.20;;;;;;;8.44;100.00;94360.72;5112616;28;20456;-52
2021/12/12 03:24:06;;;;;;;0.30;0.20;;;;;;;8.83;100.00;94367.44;5112639;28;20427;-52
2021/12/12 03:26:37;;;;;;;0.30;0.20;;;;;;;8.93;100.00;94363.88;5112537;28;20548;-52
2021/12/12 03:29:07;;;;;;;0.40;0.30;;;;;;;8.94;100.00;94368.91;5112468;28;20514;-53
2021/12/12 03:31:38;;;;;;;0.40;0.40;;;;;;;8.79;100.00;94369.06;5112475;28;20992;-53
2021/12/12 03:34:09;;;;;;;6.90;0.50;;;;;;;8.63;100.00;94380.84;5112518;28;20435;-52
2021/12/12 03:36:38;;;;;;;0.30;0.20;;;;;;;8.66;100.00;94380.28;5111914;28;20478;-53
2021/12/12 03:39:12;;;;;;;0.30;0.20;;;;;;;8.74;100.00;94384.19;5112120;28;20462;-52
2021/12/12 03:41:41;;;;;;;0.30;0.20;;;;;;;8.85;100.00;94380.38;5112384;28;20451;-52
2021/12/12 03:44:12;;;;;;;0.30;0.20;;;;;;;8.89;100.00;94382.16;5112400;28;20462;-52
2021/12/12 03:46:42;;;;;;;0.40;0.40;;;;;;;8.88;100.00;94385.06;5112050;28;20407;-52
2021/12/12 03:49:11;;;;;;;0.30;0.20;;;;;;;8.35;100.00;94375.59;5114939;28;20516;-52
2021/12/12 03:51:41;;;;;;;0.70;0.70;;;;;;;8.61;100.00;94398.03;5116512;28;20477;-52
2021/12/12 03:54:12;;;;;;;0.40;0.30;;;;;;;8.62;100.00;94405.72;5116474;28;20461;-52
2021/12/12 03:56:41;;;;;;;1.03;0.30;;;;;;;8.77;100.00;94405.56;5116144;28;20459;-52
2021/12/12 03:59:10;;;;;;;1.07;0.97;;;;;;;8.37;100.00;94416.50;5115713;28;20442;-52
2021/12/12 04:01:43;;;;;;;0.60;0.60;;;;;;;8.30;100.00;94416.00;5116394;28;20835;-53
2021/12/12 04:04:15;;;;;;;0.30;0.20;;;;;;;8.16;100.00;94418.47;5115726;28;20990;-53
2021/12/12 04:06:43;;;;;;;0.30;0.30;;;;;;;8.18;100.00;94416.34;5115883;28;20420;-53
2021/12/12 04:09:15;;;;;;;0.40;0.40;;;;;;;8.03;100.00;94428.84;5115703;28;20471;-53
2021/12/12 04:11:46;;;;;;;3.03;0.70;;;;;;;8.33;100.00;94426.00;5115597;28;20420;-53
2021/12/12 04:14:15;;;;;;;0.40;0.30;;;;;;;8.09;100.00;94427.75;5115460;28;20495;-53
2021/12/12 04:16:47;;;;;;;0.50;0.50;;;;;;;8.22;100.00;94438.47;5115526;28;20514;-53
2021/12/12 04:19:16;;;;;;;0.70;0.57;;;;;;;8.12;100.00;94446.47;5116016;27;20502;-53
2021/12/12 04:21:44;;;;;;;0.40;0.30;;;;;;;8.30;100.00;94447.69;5115969;28;20835;-53
2021/12/12 04:24:20;;;;;;;0.30;0.20;;;;;;;8.17;100.00;94446.41;5115604;28;20435;-53
2021/12/12 04:26:49;;;;;;;0.83;0.83;;;;;;;8.12;100.00;94448.34;5115645;28;20414;-53
2021/12/12 04:29:20;;;;;;;0.40;0.30;;;;;;;7.88;100.00;94444.78;5115513;28;20466;-53
2021/12/12 04:31:52;;;;;;;2.40;2.30;;;;;;;7.85;100.00;94461.16;5115435;28;20510;-53
2021/12/12 04:34:24;;;;;;;5.50;2.97;;;;;;;7.96;100.00;94458.19;5115306;28;20497;-53
2021/12/12 04:36:53;;;;;;;0.40;0.27;;;;;;;8.14;100.00;94460.19;5115641;28;20467;-53
2021/12/12 04:39:26;;;;;;;1.50;0.60;;;;;;;7.99;100.00;94467.41;5114995;28;20419;-53
2021/12/12 04:41:58;;;;;;;1.23;1.23;;;;;;;7.69;100.00;94474.41;5114882;28;20510;-53
2021/12/12 04:44:32;;;;;;;0.30;0.30;;;;;;;8.00;100.00;94466.31;5115674;28;20510;-53
2021/12/12 04:50:11;;;;;;;2.00;1.90;;;;;;;7.91;100.00;94481.16;5071936;28;20511;-53
2021/12/12 04:52:45;;;;;;;0.40;0.30;;;;;;;8.09;100.00;94477.91;5106710;28;20434;-53
2021/12/12 04:55:21;;;;;;;0.30;0.30;;;;;;;8.13;100.00;94485.00;5114311;28;20506;-53
2021/12/12 04:57:57;;;;;;;0.37;0.30;;;;;;;8.17;100.00;94485.25;5114916;27;20958;-53
2021/12/12 05:00:31;;;;;;;0.30;0.20;;;;;;;8.29;100.00;94483.06;5114027;28;20817;-53
2021/12/12 05:03:09;;;;;;;0.40;0.30;;;;;;;8.39;100.00;94482.22;5115164;28;20432;-53
2021/12/12 05:05:47;;;;;;;0.90;0.80;;;;;;;8.31;100.00;94475.66;5114803;28;20990;-54
2021/12/12 05:08:24;;;;;;;4.10;1.13;;;;;;;8.32;100.00;94478.00;5114705;28;20474;-53
2021/12/12 05:10:59;;;;;;;0.60;0.60;;;;;;;8.12;100.00;94493.19;5114829;28;20506;-54
2021/12/12 05:13:34;;;;;;;0.30;0.30;;;;;;;7.56;100.00;94451.25;5115053;28;20462;-53
2021/12/12 05:16:08;;;;;;;0.40;0.40;;;;;;;7.75;100.00;94483.09;5114960;28;20527;-53
2021/12/12 05:18:47;;;;;;;0.30;0.20;;;;;;;8.10;100.00;94495.28;5114907;28;20430;-53
2021/12/12 05:21:17;;;;;;;7.20;0.37;;;;;;;7.95;100.00;94500.66;5114567;28;20431;-53
2021/12/12 05:23:50;;;;;;;0.50;0.50;;;;;;;7.79;100.00;94507.09;5114904;28;20416;-53
2021/12/12 05:26:24;;;;;;;1.17;1.10;;;;;;;7.88;100.00;94516.00;5114489;27;20927;-53
2021/12/12 05:29:00;;;;;;;0.30;0.30;;;;;;;7.91;100.00;94521.53;5114348;28;20535;-53
2021/12/12 05:31:30;;;;;;;0.50;0.50;;;;;;;8.08;100.00;94521.19;5113662;28;20437;-53
2021/12/12 05:33:59;;;;;;;0.30;0.20;;;;;;;8.04;100.00;94531.50;5114654;28;20502;-53
2021/12/12 05:36:29;;;;;;;0.40;0.30;;;;;;;8.06;100.00;94516.19;5114186;28;20521;-53
2021/12/12 05:38:58;;;;;;;0.53;0.53;;;;;;;8.21;100.00;94528.50;5114208;28;20840;-53
2021/12/12 05:41:28;;;;;;;0.60;0.57;;;;;;;8.34;100.00;94530.56;5114156;28;20990;-53
2021/12/12 05:43:58;;;;;;;0.80;0.80;;;;;;;8.20;100.00;94529.53;5114377;28;20442;-53
2021/12/12 05:46:26;;;;;;;0.63;0.63;;;;;;;8.43;100.00;94541.31;5114037;28;20474;-52
2021/12/12 05:48:59;;;;;;;2.20;2.20;;;;;;;8.13;100.00;94471.00;5114227;28;20412;-52
2021/12/12 05:51:29;;;;;;;0.60;0.60;;;;;;;8.31;100.00;94541.66;5114228;27;20868;-53
2021/12/12 05:53:59;;;;;;;0.40;0.30;;;;;;;8.19;100.00;94531.41;5114005;28;20418;-53
2021/12/12 05:56:33;;;;;;;2.57;0.60;;;;;;;8.19;100.00;94554.38;5113785;28;20475;-52
2021/12/12 05:59:07;;;;;;;0.40;0.30;;;;;;;8.23;100.00;94553.56;5114298;28;20485;-53
2021/12/12 06:01:36;;;;;;;0.63;0.63;;;;;;;7.97;100.00;94565.28;5113723;27;20915;-53
2021/12/12 06:04:05;;;;;;;0.97;0.97;;;;;;;8.30;100.00;94562.00;5114072;28;20428;-53
2021/12/12 06:06:40;;;;;;;2.77;2.50;;;;;;;8.16;100.00;94553.06;5113573;28;20427;-53
2021/12/12 06:09:12;;;;;;;0.80;0.67;;;;;;;8.14;100.00;94554.41;5113936;28;20506;-53
2021/12/12 06:11:44;;;;;;;1.30;1.20;;;;;;;8.36;100.00;94556.69;5113487;28;20954;-53
2021/12/12 06:14:13;;;;;;;0.93;0.93;;;;;;;8.15;100.00;94474.16;5113178;28;20483;-53
2021/12/12 06:16:44;;;;;;;0.70;0.70;;;;;;;8.70;100.00;94557.53;5113237;28;20518;-53
2021/12/12 06:19:15;;;;;;;0.63;0.60;;;;;;;8.32;100.00;94509.69;5113618;28;20431;-53
2021/12/12 06:21:44;;;;;;;0.30;0.30;;;;;;;8.86;100.00;94557.13;5113416;28;20435;-53
2021/12/12 06:24:14;;;;;;;1.53;1.43;;;;;;;8.31;100.00;94568.06;5113250;28;20435;-53
2021/12/12 06:26:44;;;;;;;0.37;0.30;;;;;;;8.64;100.00;94579.75;5113250;28;20504;-52
2021/12/12 06:29:12;;;;;;;0.47;0.47;;;;;;;8.61;100.00;94573.16;5113166;28;20472;-52
2021/12/12 06:31:43;;;;;;;2.63;2.53;;;;;;;8.53;100.00;94536.75;5113329;28;20435;-53
2021/12/12 06:34:13;;;;;;;1.23;1.20;;;;;;;9.13;100.00;94571.72;5112883;28;20518;-53
2021/12/12 06:36:43;;;;;;;0.53;0.53;;;;;;;9.29;100.00;94578.41;5112966;28;21046;-53
2021/12/12 06:39:14;;;;;;;0.90;0.40;;;;;;;8.35;100.00;94486.47;5113130;28;20911;-53
2021/12/12 06:41:44;;;;;;;4.20;1.67;;;;;;;8.94;100.00;94585.59;5113143;28;20459;-52
2021/12/12 06:44:13;;;;;;;2.30;2.20;;;;;;;8.91;100.00;94596.72;5112953;28;20468;-53
2021/12/12 06:46:43;;;;;;;4.03;2.83;;;;;;;8.48;100.00;94602.81;5112939;28;20455;-53
2021/12/12 06:49:14;;;;;;;3.70;2.10;;;;;;;8.66;100.00;94607.47;5112830;28;20907;-51
2021/12/12 06:51:54;;;;;;;3.67;3.33;;;;;;;8.93;100.00;94599.06;5112859;28;20506;-52
2021/12/12 06:54:25;;;;;;;2.87;2.67;;;;;;;9.19;100.00;94608.38;5112681;28;20451;-52
2021/12/12 06:56:57;;;;;;;1.63;1.53;;;;;;;9.33;100.00;94600.63;5112845;28;20467;-52
2021/12/12 06:59:29;;;;;;;2.77;2.47;;;;;;;8.94;100.00;94531.94;5112786;28;20427;-52
2021/12/12 07:01:58;;;;;;;1.10;1.10;;;;;;;9.44;100.00;94607.38;5112515;28;20958;-54
2021/12/12 07:04:30;;;;;;;0.40;0.40;;;;;;;9.40;100.00;94617.72;5112591;28;20481;-53
2021/12/12 07:07:01;;;;;;;0.70;0.70;;;;;;;9.46;100.00;94613.19;5112038;28;20424;-53
2021/12/12 07:09:31;;;;;;;1.47;1.37;;;;;;;9.49;100.00;94621.34;5111206;28;20494;-53
2021/12/12 07:12:05;;;;;;;1.70;1.70;;;;;;;9.44;100.00;94620.59;5111636;28;20431;-53
2021/12/12 07:14:35;;;;;;;1.13;1.03;;;;;;;9.27;100.00;94573.41;5111742;28;20510;-53
2021/12/12 07:17:05;;;;;;;2.30;2.20;;;;;;;9.21;100.00;94557.91;5112097;28;20510;-53
2021/12/12 07:19:34;;;;;;;1.80;1.70;;;;;;;9.76;100.00;94639.34;5112372;28;20462;-53
2021/12/12 07:22:03;;;;;;;1.63;1.53;;;;;;;9.44;100.00;94578.28;5112243;28;20423;-53
2021/12/12 07:24:32;;;;;;;1.03;0.60;;;;;;;9.81;100.00;94636.66;5112275;28;20503;-53
2021/12/12 07:27:03;;;;;;;0.67;0.67;;;;;;;9.86;100.00;94631.31;5112240;28;20506;-53
2021/12/12 07:29:31;;;;;;;3.00;1.90;;;;;;;9.93;100.00;94639.69;5112534;28;20424;-53
2021/12/12 07:32:00;;;;;;;1.17;0.70;;;;;;;9.97;100.00;94637.25;5112673;28;20481;-53
2021/12/12 07:34:30;;;;;;;0.57;0.57;;;;;;;10.06;100.00;94636.38;5112565;28;20834;-53
2021/12/12 07:37:00;;;;;;;1.53;0.90;;;;;;;9.97;100.00;94642.56;5111956;28;20519;-53
2021/12/12 07:39:31;;;;;;;6.10;1.07;;;;;;;10.04;100.00;94643.78;5112400;28;20464;-53
2021/12/12 07:42:04;;;;;;;1.47;1.47;;;;;;;9.90;100.00;94639.47;5112252;28;20551;-52
2021/12/12 07:44:36;;;;;;;2.87;1.43;;;;;;;10.08;100.00;94647.47;5111477;28;20504;-53
2021/12/12 07:47:06;;;;;;;2.67;1.33;;;;;;;9.96;100.00;94655.03;5110436;28;20449;-53
2021/12/12 07:49:37;;;;;;;1.17;1.17;;;;;;;9.88;100.00;94668.88;5112160;28;20426;-53
2021/12/12 07:52:07;;;;;;;6.27;2.10;;;;;;;9.94;100.00;94665.06;5111991;28;20915;-52
2021/12/12 07:54:37;;;;;;;1.17;1.17;;;;;;;10.13;100.00;94665.97;5111621;28;20525;-53
2021/12/12 07:57:08;;;;;;;1.47;1.40;;;;;;;10.16;100.00;94661.97;5111918;28;20864;-50
2021/12/12 07:59:38;;;;;;;1.40;1.13;;;;;;;10.32;100.00;94675.84;5110292;28;20515;-51
2021/12/12 08:02:10;;;;;;;2.03;1.93;;;;;;;10.31;100.00;94683.00;5109830;28;20463;-51
2021/12/12 08:04:39;;;;;;;1.20;1.20;;;;;;;10.40;100.00;94685.81;5109867;28;21261;-51
2021/12/12 08:07:11;;;;;;;0.43;0.40;;;;;;;10.23;100.00;94680.16;5109791;28;20463;-51
2021/12/12 08:09:42;;;;;;;0.73;0.47;;;;;;;10.18;100.00;94681.81;5111329;28;20451;-52
2021/12/12 08:12:14;;;;;;;0.50;0.50;;;;;;;10.27;100.00;94686.50;5111373;28;21053;-51
2021/12/12 08:14:42;;;;;;;2.07;2.00;;;;;;;10.40;100.00;94678.63;5110980;28;20528;-51
2021/12/12 08:17:12;;;;;;;0.30;0.30;;;;;;;10.43;100.00;94679.94;5111737;28;20415;-53
2021/12/12 08:19:41;;;;;;;0.70;0.60;;;;;;;10.24;100.00;94682.53;5112278;28;20504;-52
2021/12/12 08:22:12;;;;;;;2.10;2.00;;;;;;;10.39;100.00;94692.97;5111846;28;20527;-52
2021/12/12 08:24:41;;;;;;;1.23;0.70;;;;;;;10.55;100.00;94690.94;5111957;28;20415;-51
2021/12/12 08:27:13;;;;;;;0.50;0.50;;;;;;;10.48;100.00;94695.75;5112173;28;20507;-52
2021/12/12 08:29:41;;;;;;;0.70;0.40;;;;;;;10.59;100.00;94705.97;5112151;28;20431;-53
2021/12/12 08:32:14;;;;;;;1.17;1.17;;;;;;;10.63;100.00;94701.66;5111724;28;20506;-53
2021/12/12 08:35:03;;;;;;;0.80;0.80;;;;;;;10.52;100.00;94700.25;5112706;28;20960;-53
2021/12/12 08:37:32;;;;;;;1.07;0.97;;;;;;;10.41;100.00;94701.41;5115503;28;20500;-53
2021/12/12 08:40:03;;;;;;;1.93;1.83;;;;;;;9.84;100.00;94620.19;5115330;28;20498;-53
2021/12/12 08:42:33;;;;;;;1.30;1.30;;;;;;;10.35;100.00;94659.38;5115668;28;20989;-53
2021/12/12 08:45:10;;;;;;;3.07;2.97;;;;;;;10.15;100.00;94705.41;5115243;28;20507;-53
2021/12/12 08:47:39;;;;;;;3.47;1.80;;;;;;;10.36;100.00;94700.69;5115530;28;20454;-53
2021/12/12 08:50:11;;;;;;;2.20;2.10;;;;;;;10.61;100.00;94697.72;5115441;27;20447;-53
2021/12/12 08:52:42;;;;;;;1.43;1.43;;;;;;;10.57;100.00;94697.53;5115153;28;20459;-53
2021/12/12 08:55:18;;;;;;;5.13;2.13;;;;;;;10.72;100.00;94696.53;5115562;28;20419;-53
2021/12/12 08:57:58;;;;;;;2.37;1.40;;;;;;;11.00;100.00;94687.69;5114898;28;20861;-53
2021/12/12 09:00:38;;;;;;;1.43;1.43;;;;;;;10.96;100.00;94683.22;5115007;28;20996;-53
2021/12/12 09:03:09;;;;;;;7.93;0.53;;;;;;;11.41;100.00;94680.69;5114959;28;20424;-53
2021/12/12 09:05:42;;;;;;;0.77;0.77;;;;;;;11.08;100.00;94675.66;5114919;28;20420;-53
2021/12/12 09:08:19;;;;;;;1.90;1.80;;;;;;;11.42;100.00;94687.56;5114882;28;20418;-53
2021/12/12 09:10:55;;;;;;;1.57;1.47;;;;;;;11.32;100.00;94676.31;5114786;28;20922;-53
2021/12/12 09:13:30;;;;;;;0.73;0.73;;;;;;;11.37;100.00;94687.66;5114985;28;20502;-53
2021/12/12 09:16:08;;;;;;;0.60;0.60;;;;;;;11.18;100.00;94681.56;5114592;27;21076;-53
2021/12/12 09:18:42;;;;;;;0.90;0.90;;;;;;;11.56;100.00;94678.88;5114819;28;20474;-53
2021/12/12 09:21:22;;;;;;;0.30;0.20;;;;;;;11.60;100.00;94682.53;5114822;28;20859;-53
2021/12/12 09:24:06;;;;;;;0.73;0.53;;;;;;;11.57;100.00;94688.41;5114093;28;20426;-53
2021/12/12 09:26:38;;;;;;;0.40;0.40;;;;;;;11.51;100.00;94689.56;5114532;28;20415;-52
2021/12/12 09:29:17;;;;;;;0.37;0.27;;;;;;;11.32;100.00;94698.34;5114692;28;20951;-53
2021/12/12 09:31:52;;;;;;;3.23;1.00;;;;;;;11.67;100.00;94688.22;5114688;28;20450;-53
2021/12/12 09:34:26;;;;;;;0.40;0.30;;;;;;;11.40;100.00;94692.38;5114093;28;20979;-53
2021/12/12 09:37:18;;;;;;;0.40;0.30;;;;;;;11.86;100.00;94691.69;5114314;28;20439;-53
2021/12/12 09:39:58;;;;;;;0.30;0.20;;;;;;;11.92;100.00;94693.94;5114496;28;20528;-53
2021/12/12 09:42:43;;;;;;;0.40;0.30;;;;;;;12.17;100.00;94692.69;5114015;28;20444;-53
2021/12/12 09:45:48;;;;;;;0.40;0.30;;;;;;;12.02;100.00;94698.28;5114168;28;20498;-53
2021/12/12 09:52:14;;;;;;;0.60;0.60;;;;;;;10.88;100.00;94721.75;5105907;28;20526;-53
2021/12/12 09:54:50;;;;;;;2.47;1.50;;;;;;;9.87;100.00;94568.56;5114049;28;20514;-54
2021/12/12 09:57:24;;;;;;;2.50;1.13;;;;;;;10.88;100.00;94721.00;5114221;28;20514;-53
2021/12/12 10:00:14;;;;;;;0.40;0.30;;;;;;;10.73;100.00;94722.75;5113681;27;20519;-53
2021/12/12 10:03:09;;;;;;;0.67;0.67;;;;;;;11.15;100.00;94713.19;5113516;28;20443;-52
2021/12/12 10:05:50;;;;;;;0.77;0.57;;;;;;;11.04;100.00;94662.16;5113505;28;20506;-53
2021/12/12 10:08:29;;;;;;;1.90;1.80;;;;;;;11.30;100.00;94718.28;5113881;28;20488;-54
2021/12/12 10:11:03;;;;;;;0.73;0.73;;;;;;;11.28;100.00;94699.97;5113453;28;20868;-54
2021/12/12 10:13:34;;;;;;;0.40;0.30;;;;;;;11.84;100.00;94705.22;5113796;28;20846;-53
2021/12/12 10:16:07;;;;;;;9.70;1.60;;;;;;;12.67;100.00;94706.91;5113407;28;20458;-53
2021/12/12 10:18:50;;;;;;;0.40;0.30;;;;;;;13.64;100.00;94683.19;5113388;28;20475;-52
2021/12/12 10:21:26;;;;;;;1.43;0.60;;;;;;;13.45;100.00;94685.28;5113582;28;20634;-53
2021/12/12 10:24:06;;;;;;;1.23;1.23;;;;;;;13.25;100.00;94681.19;5113410;28;20447;-53
2021/12/12 10:26:38;;;;;;;1.40;1.40;;;;;;;13.36;100.00;94677.19;5113624;28;20459;-52
2021/12/12 10:29:13;;;;;;;0.73;0.73;;;;;;;12.82;100.00;94680.00;5113713;28;20481;-53
2021/12/12 10:31:48;;;;;;;2.00;1.90;;;;;;;12.65;100.00;94677.94;5113256;28;21092;-52
2021/12/12 10:34:21;;;;;;;1.10;0.40;;;;;;;13.00;100.00;94680.94;5113257;28;20429;-52
2021/12/12 10:36:59;;;;;;;0.60;0.60;;;;;;;13.63;100.00;94668.34;5113089;28;20519;-53
2021/12/12 10:39:34;;;;;;;0.40;0.30;;;;;;;13.81;100.00;94618.63;5113346;28;20554;-53
2021/12/12 10:42:07;;;;;;;1.20;0.77;;;;;;;15.20;100.00;94664.84;5113365;28;20510;-54
2021/12/12 10:44:39;;;;;;;1.53;1.43;;;;;;;15.22;100.00;94662.63;5113388;28;20499;-54
2021/12/12 10:47:14;;;;;;;1.13;1.13;;;;;;;14.84;100.00;94672.31;5112983;28;20427;-54
2021/12/12 10:50:02;;;;;;;3.27;1.53;;;;;;;14.72;100.00;94675.59;5113401;28;20419;-54
2021/12/12 10:52:38;;;;;;;0.67;0.67;;;;;;;14.54;100.00;94665.97;5112895;28;20467;-54
2021/12/12 10:55:09;;;;;;;1.70;1.60;;;;;;;13.48;100.00;94679.34;5113051;28;20478;-54
2021/12/12 10:57:41;;;;;;;5.30;1.00;;;;;;;12.77;100.00;94682.75;5112545;28;20855;-53
2021/12/12 11:00:13;;;;;;;3.63;3.30;;;;;;;12.52;100.00;94685.94;5112979;28;20942;-53
2021/12/12 11:02:49;;;;;;;1.80;1.70;;;;;;;12.52;100.00;94692.00;5112754;28;20489;-53
2021/12/12 11:05:22;;;;;;;0.40;0.30;;;;;;;12.83;100.00;94683.41;5112508;28;20434;-53
2021/12/12 11:07:56;;;;;;;3.70;1.20;;;;;;;12.77;100.00;94693.41;5112574;28;20931;-53
2021/12/12 11:10:28;;;;;;;1.17;0.70;;;;;;;13.02;100.00;94686.75;5112597;28;20431;-53
2021/12/12 11:13:01;;;;;;;0.80;0.73;;;;;;;12.47;100.00;94606.31;5112488;28;20476;-53
2021/12/12 11:15:36;;;;;;;0.60;0.60;;;;;;;12.51;100.00;94687.00;5112160;28;21194;-53
2021/12/12 11:18:08;;;;;;;0.63;0.50;;;;;;;12.60;100.00;94675.38;5112727;28;20464;-53
2021/12/12 11:20:42;;;;;;;2.83;0.83;;;;;;;12.18;100.00;94661.59;5112436;28;20455;-53
2021/12/12 11:23:16;;;;;;;0.50;0.50;;;;;;;12.20;100.00;94693.97;5112364;28;20958;-53
2021/12/12 11:25:49;;;;;;;0.60;0.60;;;;;;;12.07;100.00;94698.19;5112270;28;20459;-53
2021/12/12 11:28:22;;;;;;;0.40;0.37;;;;;;;12.35;100.00;94694.47;5112328;28;20514;-53
2021/12/12 11:30:54;;;;;;;0.60;0.53;;;;;;;12.56;100.00;94690.34;5112579;28;20537;-53
2021/12/12 11:33:24;;;;;;;5.40;1.03;;;;;;;12.56;100.00;94693.00;5112419;28;20427;-53
2021/12/12 11:35:57;;;;;;;0.63;0.63;;;;;;;12.21;100.00;94699.00;5112328;28;20507;-53
2021/12/12 11:38:37;;;;;;;4.03;3.83;;;;;;;11.87;100.00;94695.88;5112338;28;20456;-53
2021/12/12 11:41:10;;;;;;;1.33;1.17;;;;;;;11.16;100.00;94694.31;5112551;28;20503;-53
2021/12/12 11:43:42;;;;;;;2.33;2.13;;;;;;;10.75;100.00;94707.34;5112298;28;20454;-53
2021/12/12 11:46:15;;;;;;;0.40;0.30;;;;;;;10.75;100.00;94709.22;5112258;28;20487;-53
2021/12/12 11:48:55;;;;;;;2.77;1.97;;;;;;;10.62;100.00;94713.38;5111970;28;20414;-53
2021/12/12 11:51:32;;;;;;;1.47;0.90;;;;;;;10.46;100.00;94706.66;5111679;28;20968;-53
2021/12/12 11:54:08;;;;;;;0.40;0.40;;;;;;;10.23;100.00;94709.28;5112210;28;20556;-54
2021/12/12 11:56:45;;;;;;;1.17;1.17;;;;;;;10.40;100.00;94722.91;5111817;28;20455;-53
2021/12/12 11:59:20;;;;;;;1.07;1.07;;;;;;;10.58;100.00;94717.63;5111673;28;20488;-53
2021/12/12 12:01:59;;;;;;;0.97;0.50;;;;;;;10.52;100.00;94708.19;5112104;28;20447;-53
2021/12/12 12:04:55;;;;;;;1.37;1.00;;;;;;;10.49;100.00;94721.19;5112429;28;20415;-53
2021/12/12 12:07:43;;;;;;;1.30;0.97;;;;;;;10.34;100.00;94724.00;5112342;28;20572;-53
2021/12/12 12:10:19;;;;;;;1.33;1.33;;;;;;;10.43;100.00;94717.00;5114941;28;20425;-54
2021/12/12 12:13:21;;;;;;;0.60;0.60;;;;;;;10.38;100.00;94731.13;5116434;28;20470;-53